Time;durP1;ratioP1;P1;durP2;ratioP2;P2;SDS_P1;SDS_P2;PMS_P1;PMS_P2;Temp;Humidity;BMP_temperature;BMP_pressure;BME280_temperature;BME280_humidity;BME280_pressure;Samples;Min_cycle;Max_cycle;Signal;HPM_P1;HPM_P2
2023/06/02 00:00:23;;;;;;;;;;;17.70;69.10;;;-151.14;100.00;62537.16;4929192;29;20118;-86
2023/06/02 00:02:53;;;;;;;;;;;17.70;69.20;;;-151.14;100.00;62537.16;4914595;29;19928;-88
2023/06/02 00:05:25;;;;;;;;;;;17.70;69.20;;;-151.14;100.00;62537.16;4917261;29;19923;-87
2023/06/02 00:07:55;;;;;;;;;;;17.70;69.10;;;-151.14;100.00;62537.16;4917101;29;19934;-86
2023/06/02 00:10:23;;;;;;;;;;;17.60;68.90;;;-151.14;100.00;62537.16;4916390;29;19923;-86
2023/06/02 00:12:51;;;;;;;;;;;17.60;68.90;;;-151.14;100.00;62537.16;4932936;29;19930;-86
2023/06/02 00:15:21;;;;;;;;;;;17.70;69.00;;;-151.14;100.00;62537.16;4932778;29;19923;-86
2023/06/02 00:17:49;;;;;;;;;;;17.70;69.00;;;18.08;100.00;62537.16;4932700;29;19923;-86
2023/06/02 00:20:17;;;;;;;;;;;17.60;68.90;;;-151.14;100.00;62537.16;4932273;29;19923;-87
2023/06/02 00:22:46;;;;;;;;;;;17.60;69.00;;;-151.14;100.00;62537.16;4916904;29;20122;-86
2023/06/02 00:25:14;;;;;;;;;;;17.60;69.10;;;-151.14;100.00;62537.16;4932600;29;20126;-86
2023/06/02 00:27:42;;;;;;;;;;;17.60;68.90;;;-151.14;100.00;62537.16;4932777;29;20214;-85
2023/06/02 00:30:12;;;;;;;;;;;17.60;68.90;;;-151.14;100.00;62537.16;4916193;29;19923;-86
2023/06/02 00:32:42;;;;;;;;;;;17.60;68.90;;;-151.14;100.00;62537.16;4932641;29;19923;-86
2023/06/02 00:35:10;;;;;;;;;;;17.60;68.80;;;16.73;100.00;83605.56;4932462;29;19924;-85
2023/06/02 00:37:38;;;;;;;;;;;17.60;68.80;;;-151.14;100.00;62537.16;4932315;29;19923;-87
2023/06/02 00:40:08;;;;;;;;;;;17.60;68.80;;;18.08;100.00;62537.16;4915863;29;19946;-86
2023/06/02 00:42:36;;;;;;;;;;;17.60;68.90;;;-151.14;100.00;62537.16;4916898;29;19923;-86
2023/06/02 00:45:05;;;;;;;;;;;17.60;69.10;;;187.61;100.00;62537.16;4932288;29;19924;-86
2023/06/02 00:47:33;;;;;;;;;;;17.60;69.00;;;16.73;100.00;62537.16;4863762;29;19924;-86
2023/06/02 00:50:02;;;;;;;;;;;17.60;69.00;;;-151.14;100.00;62537.16;4878482;29;19924;-86
2023/06/02 00:52:30;;;;;;;;;;;17.60;69.00;;;-151.14;100.00;62537.16;4879109;29;19924;-86
2023/06/02 00:54:58;;;;;;;;;;;17.60;68.80;;;-151.14;100.00;62537.16;4863510;29;19924;-86
2023/06/02 00:57:28;;;;;;;;;;;17.50;68.60;;;-151.14;100.00;62537.16;4913114;29;19924;-86
2023/06/02 00:59:56;;;;;;;;;;;17.50;68.60;;;-151.14;100.00;62537.16;4912497;29;19985;-87
2023/06/02 01:02:24;;;;;;;;;;;17.50;69.40;;;-151.14;100.00;62537.16;4897814;29;19923;-85
2023/06/02 01:04:57;;;;;;;;;;;17.50;68.50;;;-151.14;100.00;62537.16;4913182;29;20119;-86
2023/06/02 01:07:27;;;;;;;;;;;17.50;68.40;;;-151.14;100.00;62537.16;4913174;29;19924;-86
2023/06/02 01:09:56;;;;;;;;;;;17.50;68.40;;;-151.14;100.00;62537.16;4896753;29;19923;-86
2023/06/02 01:12:24;;;;;;;;;;;17.50;68.40;;;-151.14;100.00;62537.16;4913121;29;19923;-87
2023/06/02 01:14:52;;;;;;;;;;;17.50;68.40;;;16.63;100.00;62537.16;4897298;29;19923;-87
2023/06/02 01:17:20;;;;;;;;;;;17.50;68.30;;;-151.14;100.00;62537.16;4912948;29;19924;-87
2023/06/02 01:19:49;;;;;;;;;;;17.50;68.40;;;16.62;100.00;62537.16;4896645;29;19930;-86
2023/06/02 01:22:23;;;;;;;;;;;17.50;68.40;;;-151.14;100.00;62537.16;4913134;29;20142;-85
2023/06/02 01:24:57;;;;;;;;;;;17.50;68.40;;;-151.14;100.00;62537.16;4897250;29;20215;-86
2023/06/02 01:27:26;;;;;;;;;;;17.40;68.40;;;-151.14;100.00;62537.16;4912794;29;19932;-86
2023/06/02 01:29:55;;;;;;;;;;;17.40;68.50;;;-151.14;100.00;62537.16;4896628;29;20253;-86
2023/06/02 01:32:26;;;;;;;;;;;17.40;68.50;;;-151.14;100.00;62537.16;4913020;29;19923;-87
2023/06/02 01:34:57;;;;;;;;;;;17.40;68.40;;;16.59;100.00;62537.16;4912887;29;20099;-86
2023/06/02 01:37:25;;;;;;;;;;;17.40;68.30;;;-151.14;100.00;62537.16;4912578;29;19923;-87
2023/06/02 01:39:55;;;;;;;;;;;17.40;68.20;;;-151.14;100.00;62537.16;4896336;29;19938;-85
2023/06/02 01:42:23;;;;;;;;;;;17.40;68.10;;;-151.14;100.00;62537.16;4912840;29;19930;-87
2023/06/02 01:44:51;;;;;;;;;;;17.40;69.00;;;-151.14;100.00;62537.16;4912698;29;19924;-86
2023/06/02 01:47:19;;;;;;;;;;;17.40;68.10;;;-151.14;100.00;62537.16;4896856;29;19923;-85
2023/06/02 01:49:47;;;;;;;;;;;17.40;68.10;;;18.08;100.00;62537.16;4912101;29;20211;-86
2023/06/02 01:52:15;;;;;;;;;;;17.40;68.20;;;-151.14;100.00;62537.16;4896874;29;19923;-85
2023/06/02 01:54:44;;;;;;;;;;;17.40;68.10;;;-151.14;100.00;62537.16;4897003;29;19923;-86
2023/06/02 01:57:13;;;;;;;;;;;17.40;68.10;;;-151.14;100.00;62537.16;4896576;29;19954;-85
2023/06/02 01:59:41;;;;;;;;;;;17.40;68.10;;;-151.14;100.00;62537.16;4911854;29;19924;-86
2023/06/02 02:02:09;;;;;;;;;;;17.40;68.10;;;-151.14;100.00;62537.16;4912734;29;20142;-86
2023/06/02 02:04:40;;;;;;;;;;;17.40;68.00;;;;;;4910619;29;19992;-86
2023/06/02 02:11:15;;;;;;;;;;;17.30;68.00;;;16.46;100.00;62537.16;4890509;29;19916;-87
2023/06/02 02:13:44;;;;;;;;;;;17.30;67.90;;;16.46;100.00;62537.16;4895299;29;20219;-87
2023/06/02 02:16:12;;;;;;;;;;;17.30;67.80;;;-151.14;100.00;62537.16;4912275;29;19932;-86
2023/06/02 02:18:40;;;;;;;;;;;17.30;67.90;;;-151.14;100.00;62537.16;4911492;29;19939;-85
2023/06/02 02:21:08;;;;;;;;;;;17.30;67.90;;;16.42;100.00;62537.16;4897103;29;20223;-86
2023/06/02 02:23:36;;;;;;;;;;;17.30;67.80;;;-151.14;100.00;62537.16;4895985;29;19924;-85
2023/06/02 02:26:05;;;;;;;;;;;17.30;67.80;;;16.42;100.00;83377.66;4895069;29;19923;-84
2023/06/02 02:28:33;;;;;;;;;;;17.30;67.80;;;-151.14;100.00;62537.16;4896864;29;19929;-86
2023/06/02 02:31:04;;;;;;;;;;;17.30;67.70;;;-151.14;100.00;62537.16;4915242;29;19923;-86
2023/06/02 02:33:32;;;;;;;;;;;17.30;67.80;;;-151.14;100.00;62537.16;4912579;29;20179;-87
2023/06/02 02:36:00;;;;;;;;;;;17.30;67.80;;;-151.14;100.00;62537.16;4909031;29;19923;-85
2023/06/02 02:38:29;;;;;;;;;;;17.30;67.80;;;-151.14;100.00;62537.16;4929918;29;19923;-87
2023/06/02 02:40:57;;;;;;;;;;;17.20;67.60;;;-151.14;100.00;62537.16;4930607;29;19930;-85
2023/06/02 02:43:25;;;;;;;;;;;17.20;67.70;;;-151.14;100.00;62537.16;4902526;29;19924;-87
2023/06/02 02:45:54;;;;;;;;;;;17.20;67.70;;;-151.14;100.00;62537.16;4911851;29;19928;-85
2023/06/02 02:48:24;;;;;;;;;;;17.20;67.80;;;16.39;100.00;62537.16;4918402;29;19928;-87
2023/06/02 02:50:53;;;;;;;;;;;17.30;68.00;;;-151.14;100.00;62537.16;4917339;29;19923;-87
2023/06/02 02:53:21;;;;;;;;;;;17.30;67.90;;;-151.14;100.00;62537.16;4921839;29;19923;-87
2023/06/02 02:55:51;;;;;;;;;;;17.30;68.00;;;16.37;100.00;62537.16;4911210;29;19930;-87
2023/06/02 02:58:20;;;;;;;;;;;17.30;67.90;;;-151.14;100.00;62537.16;4895358;29;19930;-85
2023/06/02 03:00:48;;;;;;;;;;;17.20;67.80;;;-151.14;100.00;62537.16;4930348;29;19923;-86
2023/06/02 03:03:16;;;;;;;;;;;17.30;67.90;;;-151.14;100.00;62537.16;4901103;29;19923;-86
2023/06/02 03:05:47;;;;;;;;;;;17.20;67.70;;;-151.14;100.00;62537.16;4905833;29;19931;-86
2023/06/02 03:08:15;;;;;;;;;;;17.20;67.80;;;-151.14;100.00;62537.16;4895564;29;19924;-86
2023/06/02 03:10:44;;;;;;;;;;;17.20;67.70;;;-151.14;100.00;62537.16;4895907;29;19924;-85
2023/06/02 03:13:12;;;;;;;;;;;17.20;67.70;;;-151.14;100.00;62537.16;4911426;29;19923;-86
2023/06/02 03:15:40;;;;;;;;;;;17.20;67.70;;;-151.14;100.00;62537.16;4906476;29;19923;-85
2023/06/02 03:18:09;;;;;;;;;;;17.20;67.70;;;18.08;100.00;62537.16;4921706;29;19938;-84
2023/06/02 03:20:38;;;;;;;;;;;17.20;67.70;;;-151.14;100.00;62537.16;4894778;29;19930;-87
2023/06/02 03:23:09;;;;;;;;;;;17.20;67.80;;;-151.14;100.00;62537.16;4911437;29;19923;-86
2023/06/02 03:25:40;;;;;;;;;;;17.20;67.80;;;16.35;100.00;62537.16;4911652;29;19923;-86
2023/06/02 03:28:09;;;;;;;;;;;17.20;67.90;;;-151.14;100.00;62537.16;4913724;29;19930;-86
2023/06/02 03:30:37;;;;;;;;;;;17.20;67.70;;;-151.14;100.00;62537.16;4928663;29;19929;-86
2023/06/02 03:33:05;;;;;;;;;;;17.20;67.80;;;-151.14;100.00;62537.16;4916445;29;20253;-86
2023/06/02 03:35:33;;;;;;;;;;;17.20;67.80;;;-151.14;100.00;62537.16;4896735;29;19923;-86
2023/06/02 03:38:05;;;;;;;;;;;17.20;67.70;;;-151.14;100.00;62537.16;4912060;29;19924;-85
2023/06/02 03:40:34;;;;;;;;;;;17.20;67.80;;;-151.14;100.00;62537.16;4900630;29;19927;-86
2023/06/02 03:43:02;;;;;;;;;;;17.20;67.70;;;-151.14;100.00;62537.16;4919982;29;19930;-86
2023/06/02 03:45:31;;;;;;;;;;;17.30;67.90;;;-151.14;100.00;62537.16;4902100;29;19929;-86
2023/06/02 03:47:59;;;;;;;;;;;17.30;67.90;;;-151.14;100.00;62537.16;4905956;29;19930;-87
2023/06/02 03:50:28;;;;;;;;;;;17.30;67.90;;;-151.14;100.00;62537.16;4912078;29;19923;-86
2023/06/02 03:53:01;;;;;;;;;;;17.30;67.90;;;-151.14;100.00;62537.16;4930663;29;20233;-86
2023/06/02 03:55:29;;;;;;;;;;;17.30;68.00;;;-151.14;100.00;62537.16;4899703;29;19923;-86
2023/06/02 03:57:59;;;;;;;;;;;17.30;68.30;;;-151.14;100.00;62537.16;4898323;29;20118;-86
2023/06/02 04:00:28;;;;;;;;;;;17.30;68.40;;;18.24;100.00;62537.16;4897818;29;19924;-86
2023/06/02 04:02:57;;;;;;;;;;;17.30;68.30;;;-151.14;100.00;62537.16;4917485;29;19923;-86
2023/06/02 04:05:25;;;;;;;;;;;17.40;68.30;;;-151.14;100.00;62537.16;4926384;29;19946;-87
2023/06/02 04:07:56;;;;;;;;;;;17.40;68.40;;;-151.14;100.00;62537.16;4913825;29;19929;-86
2023/06/02 04:10:25;;;;;;;;;;;17.40;68.50;;;-151.14;100.00;62537.16;4897082;29;19930;-86
2023/06/02 04:12:54;;;;;;;;;;;17.40;68.40;;;-151.14;100.00;62537.16;4898592;29;19930;-86
2023/06/02 04:15:25;;;;;;;;;;;17.40;68.50;;;-151.14;100.00;62537.16;4882774;29;20122;-87
2023/06/02 04:17:53;;;;;;;;;;;17.40;68.40;;;-151.14;100.00;62537.16;4914117;29;19923;-86
2023/06/02 04:20:21;;;;;;;;;;;17.30;68.40;;;-151.14;100.00;62537.16;4881230;29;19924;-85
2023/06/02 04:22:49;;;;;;;;;;;17.30;68.60;;;-151.14;100.00;62537.16;4913920;29;20155;-87
2023/06/02 04:25:18;;;;;;;;;;;17.30;68.80;;;-151.14;100.00;62537.16;4925525;29;19923;-85
2023/06/02 04:27:46;;;;;;;;;;;17.30;68.90;;;18.08;100.00;62537.16;4900193;29;19923;-86
2023/06/02 04:30:15;;;;;;;;;;;17.30;69.10;;;18.08;100.00;62537.16;4901122;29;20107;-86
2023/06/02 04:32:45;;;;;;;;;;;17.30;69.20;;;18.08;100.00;62537.16;4912398;29;19929;-87
2023/06/02 04:35:14;;;;;;;;;;;17.30;69.10;;;-151.14;100.00;62537.16;4913605;29;19923;-85
2023/06/02 04:37:46;;;;;;;;;;;17.30;69.20;;;16.61;100.00;62537.16;4897633;29;19930;-86
2023/06/02 04:40:15;;;;;;;;;;;17.40;69.20;;;-151.14;100.00;62537.16;4893924;29;19924;-86
2023/06/02 04:42:44;;;;;;;;;;;17.40;69.20;;;-151.14;100.00;62537.16;4864045;29;19924;-86
2023/06/02 04:45:12;;;;;;;;;;;17.40;69.40;;;-151.14;100.00;62537.16;4879260;29;19924;-86
2023/06/02 04:47:42;;;;;;;;;;;17.40;69.30;;;16.70;100.00;62537.16;4866596;29;19932;-87
2023/06/02 04:50:13;;;;;;;;;;;17.50;69.60;;;-151.14;100.00;62537.16;4907246;29;19925;-87
2023/06/02 04:52:43;;;;;;;;;;;17.50;69.60;;;-151.14;100.00;62537.16;4913488;29;19924;-87
2023/06/02 04:55:11;;;;;;;;;;;17.50;69.40;;;16.74;100.00;62537.16;4887438;29;19923;-86
2023/06/02 04:57:41;;;;;;;;;;;17.50;69.90;;;16.76;100.00;62537.16;4908060;29;19929;-86
2023/06/02 05:00:11;;;;;;;;;;;17.50;70.20;;;-151.14;100.00;62537.16;4917582;29;19929;-86
2023/06/02 05:02:39;;;;;;;;;;;17.50;70.00;;;-151.14;100.00;62537.16;4899275;29;20005;-85
2023/06/02 05:05:08;;;;;;;;;;;17.60;70.00;;;102.80;100.00;62537.16;4908648;29;19929;-86
2023/06/02 05:07:38;;;;;;;;;;;17.60;71.40;;;-151.14;100.00;62537.16;4897594;29;20237;-86
2023/06/02 05:10:07;;;;;;;;;;;17.60;70.60;;;-151.14;100.00;62537.16;4902480;29;19930;-86
2023/06/02 05:12:36;;;;;;;;;;;17.70;70.70;;;-151.14;100.00;62537.16;4929935;29;19923;-87
2023/06/02 05:15:07;;;;;;;;;;;17.70;70.70;;;-151.14;100.00;62537.16;4892584;29;19929;-87
2023/06/02 05:17:36;;;;;;;;;;;17.80;70.90;;;-151.14;100.00;62537.16;4912709;29;20232;-87
2023/06/02 05:20:05;;;;;;;;;;;17.80;70.80;;;-151.14;100.00;62537.16;4881354;29;19930;-86
2023/06/02 05:22:33;;;;;;;;;;;17.90;70.50;;;;;;4897448;29;19923;-86
2023/06/02 05:25:02;;;;;;;;;;;17.90;70.50;;;;;;4897390;29;20207;-86
2023/06/02 05:27:31;;;;;;;;;;;17.90;70.40;;;-151.14;100.00;62537.16;4913030;29;19924;-87
2023/06/02 05:30:00;;;;;;;;;;;18.00;70.30;;;-151.14;100.00;62537.16;4896326;29;19924;-87
2023/06/02 05:32:28;;;;;;;;;;;18.00;70.50;;;-151.14;100.00;62537.16;4888985;29;19945;-88
2023/06/02 05:34:57;;;;;;;;;;;18.00;70.40;;;-151.14;100.00;62537.16;4931893;29;19959;-87
2023/06/02 05:37:25;;;;;;;;;;;18.00;70.30;;;-151.14;100.00;62537.16;4925550;23;19919;-82
2023/06/02 05:39:54;;;;;;;;;;;18.00;70.20;;;-151.14;100.00;62537.16;4918450;29;19926;-82
2023/06/02 05:42:25;;;;;;;;;;;18.10;70.50;;;-151.14;100.00;62537.16;4934733;29;19922;-82
2023/06/02 05:44:54;;;;;;;;;;;18.10;70.50;;;-151.14;100.00;62537.16;4934636;29;19927;-83
2023/06/02 05:47:22;;;;;;;;;;;18.10;70.50;;;-151.14;100.00;62537.16;4931601;29;20125;-82
2023/06/02 05:49:51;;;;;;;;;;;18.10;70.40;;;-151.14;100.00;62537.16;4937221;29;20102;-82
2023/06/02 05:52:19;;;;;;;;;;;18.20;70.30;;;-151.14;100.00;62537.16;4949026;29;19923;-82
2023/06/02 05:54:48;;;;;;;;;;;18.20;70.10;;;-151.14;100.00;62537.16;4914280;29;19923;-83
2023/06/02 05:57:17;;;;;;;;;;;18.20;70.20;;;-151.14;100.00;62537.16;4902224;29;21281;-82
2023/06/02 05:59:47;;;;;;;;;;;18.30;70.40;;;-151.14;100.00;62537.16;4933941;29;19923;-83
2023/06/02 06:02:15;;;;;;;;;;;18.30;70.40;;;-151.14;100.00;62537.16;4933508;29;19922;-82
2023/06/02 06:04:43;;;;;;;;;;;18.40;70.20;;;17.68;100.00;62537.16;4918607;29;19929;-82
2023/06/02 06:07:11;;;;;;;;;;;18.40;70.10;;;-151.14;100.00;62537.16;4934360;29;19923;-82
2023/06/02 06:09:39;;;;;;;;;;;18.40;70.00;;;-151.14;100.00;62537.16;4918002;29;19923;-82
2023/06/02 06:12:09;;;;;;;;;;;18.50;69.90;;;-151.14;100.00;62537.16;4934308;29;20111;-82
2023/06/02 06:14:38;;;;;;;;;;;18.50;69.90;;;-151.14;100.00;62537.16;4934237;29;19922;-82
2023/06/02 06:17:07;;;;;;;;;;;18.60;69.70;;;-151.14;100.00;62537.16;4918272;29;19923;-82
2023/06/02 06:19:35;;;;;;;;;;;18.60;69.60;;;-151.14;100.00;62537.16;4917835;29;19923;-82
2023/06/02 06:22:04;;;;;;;;;;;18.70;69.70;;;-151.14;100.00;62537.16;4918182;29;20239;-82
2023/06/02 06:24:34;;;;;;;;;;;18.70;69.60;;;-151.14;100.00;62537.16;4934350;29;20218;-82
2023/06/02 06:27:03;;;;;;;;;;;18.70;69.70;;;-151.14;100.00;62537.16;4918256;29;19929;-82
2023/06/02 06:29:31;;;;;;;;;;;18.80;69.70;;;-151.14;100.00;62537.16;4917822;29;19923;-82
2023/06/02 06:32:01;;;;;;;;;;;18.80;69.60;;;-151.14;100.00;62537.16;4933917;29;20121;-82
2023/06/02 06:34:30;;;;;;;;;;;18.80;69.60;;;-151.14;100.00;62537.16;4918215;29;19923;-82
2023/06/02 06:37:01;;;;;;;;;;;18.80;69.50;;;187.61;100.00;62537.16;4917783;29;20825;-82
2023/06/02 06:39:29;;;;;;;;;;;18.80;69.20;;;-151.14;100.00;62537.16;4917351;29;19923;-82
2023/06/02 06:41:57;;;;;;;;;;;18.90;69.20;;;-151.14;100.00;62537.16;4918129;29;19923;-82
2023/06/02 06:44:38;;;;;;;;;;;18.90;69.10;;;-151.14;100.00;62537.16;4918135;29;19929;-82
2023/06/02 06:47:06;;;;;;;;;;;18.90;68.90;;;-151.14;100.00;62537.16;4933653;29;19922;-82
2023/06/02 06:49:37;;;;;;;;;;;18.90;68.70;;;-151.14;100.00;62537.16;4917469;29;19923;-83
2023/06/02 06:52:05;;;;;;;;;;;19.00;68.70;;;-151.14;100.00;62537.16;4933779;29;19929;-82
2023/06/02 06:54:33;;;;;;;;;;;19.00;68.70;;;-151.14;100.00;62537.16;4918012;29;19945;-82
2023/06/02 06:57:01;;;;;;;;;;;19.00;68.50;;;-151.14;100.00;62537.16;4933656;29;19923;-82
2023/06/02 06:59:29;;;;;;;;;;;19.10;68.50;;;-151.14;100.00;62537.16;4917146;29;19929;-83
2023/06/02 07:01:57;;;;;;;;;;;19.10;68.40;;;18.10;100.00;62537.16;4934575;29;19929;-83
2023/06/02 07:04:25;;;;;;;;;;;19.10;68.30;;;-151.14;100.00;62537.16;4933780;29;19923;-83
2023/06/02 07:06:55;;;;;;;;;;;19.20;68.20;;;-151.14;100.00;62537.16;4933549;29;19923;-82
2023/06/02 07:09:25;;;;;;;;;;;19.20;68.20;;;-151.14;100.00;62537.16;4932732;29;19922;-83
2023/06/02 07:11:53;;;;;;;;;;;19.20;67.90;;;-151.14;100.00;62537.16;4933068;29;19929;-83
2023/06/02 07:14:21;;;;;;;;;;;19.20;67.90;;;-151.14;100.00;62537.16;4917417;29;19923;-83
2023/06/02 07:16:52;;;;;;;;;;;19.20;68.00;;;-151.14;100.00;62537.16;4917668;29;19945;-83
2023/06/02 07:19:20;;;;;;;;;;;19.30;68.00;;;-151.14;100.00;62537.16;4916744;29;19923;-82
2023/06/02 07:21:48;;;;;;;;;;;19.30;68.00;;;18.08;100.00;62537.16;4917650;29;19923;-83
2023/06/02 07:24:18;;;;;;;;;;;19.30;67.90;;;-151.14;100.00;62537.16;4917332;29;20125;-83
2023/06/02 07:26:46;;;;;;;;;;;19.30;67.90;;;-151.14;100.00;62537.16;4934288;29;20236;-83
2023/06/02 07:29:14;;;;;;;;;;;19.30;67.90;;;-151.14;100.00;62537.16;4934975;29;19923;-82
2023/06/02 07:31:43;;;;;;;;;;;19.30;67.90;;;-151.14;100.00;62537.16;4934884;29;19923;-82
2023/06/02 07:34:11;;;;;;;;;;;19.30;67.90;;;-151.14;100.00;62537.16;4934744;29;19929;-82
2023/06/02 07:36:39;;;;;;;;;;;19.30;67.70;;;-151.14;100.00;62537.16;4934772;29;19953;-83
2023/06/02 07:39:07;;;;;;;;;;;19.40;67.70;;;-151.14;100.00;62537.16;4918327;29;19923;-82
2023/06/02 07:41:36;;;;;;;;;;;19.40;67.60;;;-151.14;100.00;62537.16;4934687;29;19923;-83
2023/06/02 07:44:04;;;;;;;;;;;19.40;67.50;;;-151.14;100.00;62537.16;4933999;29;19923;-83
2023/06/02 07:46:32;;;;;;;;;;;19.40;67.60;;;-151.14;100.00;62537.16;4933903;29;19923;-83
2023/06/02 07:49:01;;;;;;;;;;;19.40;67.60;;;-151.14;100.00;62537.16;4916855;29;19929;-83
2023/06/02 07:51:29;;;;;;;;;;;19.40;67.60;;;-151.14;100.00;62537.16;4933411;29;20117;-82
2023/06/02 07:53:57;;;;;;;;;;;19.40;67.60;;;-151.14;100.00;62537.16;4917474;29;19922;-83
2023/06/02 07:56:25;;;;;;;;;;;19.40;67.70;;;-151.14;100.00;62537.16;4917847;29;19923;-83
2023/06/02 07:58:54;;;;;;;;;;;19.40;67.80;;;-151.14;100.00;62537.16;4933130;29;19929;-83
2023/06/02 08:01:22;;;;;;;;;;;19.40;67.80;;;18.08;100.00;62537.16;4933567;29;20194;-83
2023/06/02 08:03:51;;;;;;;;;;;19.40;68.00;;;-151.14;100.00;62537.16;4917599;29;20381;-83
2023/06/02 08:06:18;;;;;;;;;;;19.40;68.00;;;-151.14;100.00;62537.16;4933423;29;19929;-83
2023/06/02 08:08:47;;;;;;;;;;;19.50;68.30;;;-151.14;100.00;62537.16;4932526;29;19923;-83
2023/06/02 08:11:15;;;;;;;;;;;19.50;68.20;;;-151.14;100.00;62537.16;4917372;29;19929;-83
2023/06/02 08:13:43;;;;;;;;;;;19.50;68.20;;;-151.14;100.00;62537.16;4916859;29;19945;-83
2023/06/02 08:16:12;;;;;;;;;;;19.50;67.80;;;-151.14;100.00;62537.16;4917089;29;19945;-83
2023/06/02 08:18:40;;;;;;;;;;;19.50;68.20;;;-151.14;100.00;62537.16;4932111;29;19923;-83
2023/06/02 08:21:17;;;;;;;;;;;19.50;68.30;;;-151.14;100.00;62537.16;4932526;29;19923;-83
2023/06/02 08:23:46;;;;;;;;;;;19.50;68.20;;;-151.14;100.00;62537.16;4917478;29;19929;-83
2023/06/02 08:26:15;;;;;;;;;;;19.50;68.80;;;-151.14;100.00;62537.16;4936990;29;19938;-83
2023/06/02 08:28:48;;;;;;;;;;;19.50;68.70;;;-151.14;100.00;62537.16;4919329;29;19922;-83
2023/06/02 08:31:22;;;;;;;;;;;19.50;68.70;;;-151.14;100.00;62537.16;4935985;29;19923;-82
2023/06/02 08:33:54;;;;;;;;;;;19.50;68.80;;;-151.14;100.00;62537.16;4935607;29;19929;-83
2023/06/02 08:36:23;;;;;;;;;;;19.50;68.40;;;-151.14;100.00;62537.16;4919986;29;19923;-83
2023/06/02 08:38:52;;;;;;;;;;;19.50;68.20;;;-151.14;100.00;62537.16;4934839;29;20232;-83
2023/06/02 08:41:20;;;;;;;;;;;19.50;68.00;;;-151.14;100.00;62537.16;4919836;29;19929;-83
2023/06/02 08:43:48;;;;;;;;;;;19.50;69.00;;;18.81;100.00;62537.16;4935442;29;19923;-83
2023/06/02 08:46:16;;;;;;;;;;;19.50;67.90;;;-151.14;100.00;62537.16;4936743;29;19923;-83
2023/06/02 08:48:46;;;;;;;;;;;19.50;67.90;;;-151.14;100.00;62537.16;4935852;29;19926;-83
2023/06/02 08:51:21;;;;;;;;;;;19.50;68.00;;;-151.14;100.00;62537.16;4935341;29;20099;-83
2023/06/02 08:53:49;;;;;;;;;;;19.50;68.20;;;-151.14;100.00;62537.16;4935393;29;20347;-83
2023/06/02 08:56:17;;;;;;;;;;;19.60;68.40;;;-151.14;100.00;62537.16;4935471;29;19923;-83
2023/06/02 08:58:48;;;;;;;;;;;19.50;68.20;;;-151.14;100.00;62537.16;4918751;29;19930;-83
2023/06/02 09:01:16;;;;;;;;;;;19.50;68.40;;;-151.14;100.00;62537.16;4935377;29;19923;-82
2023/06/02 09:03:48;;;;;;;;;;;19.50;68.30;;;-151.14;100.00;62537.16;4936382;29;19929;-83
2023/06/02 09:06:20;;;;;;;;;;;19.60;68.40;;;18.08;100.00;62537.16;4935195;29;19922;-83
2023/06/02 09:08:58;;;;;;;;;;;19.60;68.30;;;-151.14;100.00;62537.16;4934573;29;19923;-83
2023/06/02 09:11:27;;;;;;;;;;;19.60;67.90;;;-151.14;100.00;62537.16;4919550;29;19929;-82
2023/06/02 09:13:55;;;;;;;;;;;19.60;68.30;;;18.79;100.00;62537.16;4935127;29;19923;-82
2023/06/02 09:16:23;;;;;;;;;;;19.50;68.50;;;28.66;100.00;62537.16;4935298;29;19929;-83
2023/06/02 09:18:59;;;;;;;;;;;19.50;68.70;;;18.79;100.00;83704.50;4935543;29;19923;-82
2023/06/02 09:21:28;;;;;;;;;;;19.60;68.40;;;23.37;100.00;62537.16;4936214;29;19923;-83
2023/06/02 09:23:58;;;;;;;;;;;19.60;68.50;;;-151.14;100.00;62537.16;4919117;29;19923;-83
2023/06/02 09:26:27;;;;;;;;;;;19.60;68.50;;;-151.14;100.00;62537.16;4935119;29;19923;-83
2023/06/02 09:29:02;;;;;;;;;;;19.60;68.50;;;-151.14;100.00;62537.16;4934399;29;19923;-83
2023/06/02 09:31:33;;;;;;;;;;;19.60;68.60;;;-151.14;100.00;62537.16;4934947;29;19923;-83
2023/06/02 09:34:03;;;;;;;;;;;19.60;68.40;;;23.37;100.00;62537.16;4919017;29;20124;-83
2023/06/02 09:36:32;;;;;;;;;;;19.60;68.40;;;-151.14;100.00;62537.16;4919075;29;19987;-83
2023/06/02 09:39:03;;;;;;;;;;;19.70;68.30;;;-151.14;100.00;62537.16;4918261;29;19923;-83
2023/06/02 09:41:31;;;;;;;;;;;19.70;68.20;;;23.37;100.00;62537.16;4934755;29;19923;-83
2023/06/02 09:43:59;;;;;;;;;;;19.70;67.90;;;18.85;100.00;62537.16;4918915;29;19923;-83
2023/06/02 09:46:31;;;;;;;;;;;19.60;68.00;;;-151.14;100.00;62537.16;4934702;29;19923;-83
2023/06/02 09:49:01;;;;;;;;;;;19.70;68.30;;;-151.14;100.00;62537.16;4918303;29;20400;-83
2023/06/02 09:51:30;;;;;;;;;;;19.70;69.10;;;-151.14;100.00;62537.16;4935588;29;20214;-83
2023/06/02 09:53:58;;;;;;;;;;;19.60;68.10;;;18.80;100.00;62537.16;4918771;29;19923;-83
2023/06/02 09:56:28;;;;;;;;;;;19.60;68.10;;;-151.14;100.00;62537.16;4934303;29;19930;-83
2023/06/02 09:58:56;;;;;;;;;;;19.60;68.70;;;18.08;100.00;62537.16;4917733;29;19923;-83
2023/06/02 10:01:24;;;;;;;;;;;19.60;68.70;;;-151.14;100.00;62537.16;4934317;29;19930;-83
2023/06/02 10:03:52;;;;;;;;;;;19.60;68.50;;;-151.14;100.00;62537.16;4934456;29;19923;-83
2023/06/02 10:06:24;;;;;;;;;;;19.60;68.90;;;18.74;100.00;62537.16;4918472;29;19923;-83
2023/06/02 10:09:01;;;;;;;;;;;19.50;68.90;;;18.72;100.00;62537.16;4934782;29;19929;-83
2023/06/02 10:11:31;;;;;;;;;;;19.50;68.60;;;18.16;100.00;62537.16;4918504;29;20140;-83
2023/06/02 10:14:07;;;;;;;;;;;19.50;68.70;;;18.08;100.00;62537.16;4918438;29;19923;-83
2023/06/02 10:16:43;;;;;;;;;;;19.50;69.20;;;-151.14;100.00;62537.16;4934235;29;19923;-83
2023/06/02 10:19:23;;;;;;;;;;;19.50;69.00;;;-151.14;100.00;62537.16;4933717;29;19923;-83
2023/06/02 10:22:00;;;;;;;;;;;19.50;69.50;;;18.68;100.00;62537.16;4918350;29;19922;-83
2023/06/02 10:24:34;;;;;;;;;;;19.50;69.20;;;-151.14;100.00;62537.16;4934065;29;19929;-83
2023/06/02 10:27:27;;;;;;;;;;;19.50;69.20;;;-151.14;100.00;62537.16;4933938;29;19923;-83
2023/06/02 10:29:55;;;;;;;;;;;19.50;69.30;;;23.37;100.00;62537.16;4915541;29;19922;-83
2023/06/02 10:32:24;;;;;;;;;;;19.50;69.20;;;18.69;100.00;62537.16;4918414;29;20122;-83
2023/06/02 10:34:52;;;;;;;;;;;19.50;69.30;;;18.69;100.00;62537.16;4918076;29;20126;-83
2023/06/02 10:37:20;;;;;;;;;;;19.50;70.10;;;19.40;100.00;62537.16;4934996;29;20225;-83
2023/06/02 10:39:52;;;;;;;;;;;19.50;69.30;;;-151.14;100.00;62537.16;4933357;29;19923;-83
2023/06/02 10:42:22;;;;;;;;;;;19.50;69.30;;;-151.14;100.00;62537.16;4918022;29;19923;-83
2023/06/02 10:44:51;;;;;;;;;;;19.50;69.20;;;-151.14;100.00;62537.16;4933712;29;19923;-83
2023/06/02 10:47:38;;;;;;;;;;;19.50;69.50;;;18.67;100.00;62537.16;4917374;29;19923;-83
2023/06/02 10:50:09;;;;;;;;;;;19.40;69.30;;;-151.14;100.00;62537.16;4933160;29;19923;-83
2023/06/02 10:53:11;;;;;;;;;;;19.40;69.40;;;-151.14;100.00;62537.16;4933935;29;19923;-83
2023/06/02 10:55:42;;;;;;;;;;;19.50;69.80;;;-151.14;100.00;62537.16;4933567;29;20222;-83
2023/06/02 10:58:12;;;;;;;;;;;19.50;69.70;;;-151.14;100.00;62537.16;4917797;29;19922;-83
2023/06/02 11:00:43;;;;;;;;;;;19.50;69.60;;;-151.14;100.00;62537.16;4933246;29;19938;-83
2023/06/02 11:03:32;;;;;;;;;;;19.50;69.50;;;-151.14;100.00;62537.16;4917916;29;19946;-84
2023/06/02 11:06:20;;;;;;;;;;;19.50;69.40;;;23.37;100.00;62537.16;4917868;29;19931;-83
2023/06/02 11:08:48;;;;;;;;;;;19.50;69.40;;;18.70;100.00;62537.16;4917054;29;20100;-83
2023/06/02 11:11:53;;;;;;;;;;;19.50;69.30;;;-151.14;100.00;62537.16;4933481;29;19923;-83
2023/06/02 11:14:21;;;;;;;;;;;19.50;69.40;;;-151.14;100.00;62537.16;4917979;29;19922;-83